PROFILE

 METAR AND TAF INFORMATION
ADDS - METARS form results

(1012 UTC 15 May 2021)
http://aviationweather.gov/metar/data/
 
TLPL 151000Z 08016KT 9999 FEW026 27/23 Q1015 NOSIG
TAF TLPL 150456Z 1505/1606 08015KT 9999 SCT025 TEMPO 1506/1518 5000 SHRA BKN015 BKN040 

 AIRPORT MAP

 RUNWAY INFORMATION
Runway 10 Runway length 9003 ft Runway width 148 ft
Runway elevation 11 ft Runway displaced threshold 0 ft Runway heading 90
Runway 28 Runway length 9003 ft Runway width 148 ft
Runway elevation 10 ft Runway displaced threshold 493 ft Runway heading 270

 AIRPORT FREQUENCIES
Type APP Name ST LUCIA A Frequency 119.8 MHZ
Type GND Name GND Frequency 121.6 MHZ
Type TWR Name TWR Frequency 118.3 MHZ

 AIRPORT NEAR NAVIGATION AIDS
Type VOR-DME Name Hewanorra Frequency 112400 KHZ
Type NDB Name Hewanorra Frequency 305 KHZ